Time;durP1;ratioP1;P1;durP2;ratioP2;P2;SDS_P1;SDS_P2;PMS_P1;PMS_P2;Temp;Humidity;BMP_temperature;BMP_pressure;BME280_temperature;BME280_humidity;BME280_pressure;Samples;Min_cycle;Max_cycle;Signal;HPM_P1;HPM_P2
2021/04/17 00:02:06;;;;;;;6.13;3.38;;;;;;;5.73;63.70;93184.06;4993324;28;20050;-92
2021/04/17 00:04:32;;;;;;;5.93;3.28;;;;;;;5.67;63.33;93165.19;4992694;28;20050;-92
2021/04/17 00:06:58;;;;;;;;;;;;;;;5.80;63.12;93173.94;4993560;28;20050;-92
2021/04/17 00:09:26;;;;;;;7.38;3.15;;;;;;;5.80;63.60;93177.28;4992945;28;19922;-91
2021/04/17 00:11:55;;;;;;;7.00;3.45;;;;;;;5.78;63.60;93165.69;4992569;28;20050;-92
2021/04/17 00:14:23;;;;;;;5.78;2.85;;;;;;;5.80;64.69;93161.19;4993249;28;20054;-92
2021/04/17 00:16:50;;;;;;;5.90;3.03;;;;;;;5.59;65.34;93138.06;4993055;28;20101;-92
2021/04/17 00:19:16;;;;;;;7.40;3.55;;;;;;;5.82;63.69;93165.13;4992700;28;20061;-91
2021/04/17 00:21:43;;;;;;;9.10;3.53;;;;;;;5.83;63.85;93155.75;4992628;28;20053;-91
2021/04/17 00:24:09;;;;;;;4.68;2.67;;;;;;;5.86;63.85;93163.00;4992470;28;20152;-92
2021/04/17 00:26:35;;;;;;;;;;;;;;;5.89;64.26;93160.09;4992939;28;20407;-92
2021/04/17 00:29:03;;;;;;;6.35;3.05;;;;;;;5.77;65.54;93154.69;4992677;28;19928;-92
2021/04/17 00:31:30;;;;;;;5.00;3.17;;;;;;;5.72;66.22;93164.63;4993052;28;20054;-93
2021/04/17 00:33:57;;;;;;;5.28;2.85;;;;;;;5.65;68.55;93151.81;4992206;28;20057;-91
2021/04/17 00:36:23;;;;;;;;;;;;;;;5.60;70.54;93149.03;4992981;28;20073;-91
2021/04/17 00:38:49;;;;;;;9.50;2.33;;;;;;;5.40;68.72;93136.88;4992835;28;19921;-92
2021/04/17 00:41:16;;;;;;;;;;;;;;;5.20;69.91;93160.34;4992695;28;20046;-91
2021/04/17 00:43:42;;;;;;;5.18;1.70;;;;;;;4.93;74.06;93149.03;4992814;28;19922;-93
2021/04/17 00:46:09;;;;;;;;;;;;;;;4.82;75.63;93148.50;4993050;28;20046;-93
2021/04/17 00:48:35;;;;;;;5.43;2.17;;;;;;;4.85;74.47;93144.84;4992350;28;19926;-91
2021/04/17 00:51:02;;;;;;;;;;;;;;;4.91;75.28;93148.44;4992975;28;20120;-93
2021/04/17 00:53:28;;;;;;;4.53;2.08;;;;;;;4.91;74.06;93144.13;4992538;28;19929;-92
2021/04/17 00:55:54;;;;;;;;;;;;;;;5.00;74.42;93141.50;4992521;28;20046;-92
2021/04/17 00:58:20;;;;;;;4.35;2.75;;;;;;;5.01;72.86;93126.06;4991973;28;19921;-92
2021/04/17 01:00:46;;;;;;;;;;;;;;;5.03;72.73;93131.75;4992281;28;20124;-92
2021/04/17 01:03:22;;;;;;;5.65;2.95;;;;;;;4.86;75.27;93122.72;4992101;28;19922;-92
2021/04/17 01:05:53;;;;;;;9.15;3.40;;;;;;;4.78;77.18;93126.91;4992137;28;20054;-92
2021/04/17 01:08:28;;;;;;;3.40;2.13;;;;;;;4.65;80.51;93131.84;4992404;28;20109;-93
2021/04/17 01:10:57;;;;;;;2.67;1.90;;;;;;;4.34;80.99;93117.50;4992412;28;20557;-92
2021/04/17 01:13:24;;;;;;;3.80;2.10;;;;;;;4.27;84.89;93125.06;4991856;28;20491;-92
2021/04/17 01:15:51;;;;;;;3.28;1.67;;;;;;;4.03;85.02;93115.88;4992372;28;20046;-92
2021/04/17 01:18:22;;;;;;;5.72;2.80;;;;;;;3.92;86.37;93122.94;4992031;28;20101;-92
2021/04/17 01:20:51;;;;;;;3.10;2.13;;;;;;;3.88;85.54;93119.97;4991753;28;20494;-94
2021/04/17 01:23:22;;;;;;;5.38;2.80;;;;;;;3.74;87.33;93111.31;4991375;28;20046;-93
2021/04/17 01:25:53;;;;;;;2.78;2.20;;;;;;;3.71;90.98;93124.34;4992448;28;20054;-94
2021/04/17 01:28:21;;;;;;;3.33;2.10;;;;;;;3.68;92.61;93124.72;4992147;28;20057;-93
2021/04/17 01:30:51;;;;;;;4.35;2.60;;;;;;;3.71;93.87;93131.97;4992269;28;20050;-93
2021/04/17 01:33:20;;;;;;;4.07;2.78;;;;;;;3.65;94.03;93126.81;4992313;28;20054;-93
2021/04/17 01:35:49;;;;;;;3.58;2.90;;;;;;;3.66;93.51;93123.28;4992251;28;20050;-93
2021/04/17 01:38:21;;;;;;;3.05;2.33;;;;;;;3.63;95.67;93121.88;4992430;28;20057;-94
2021/04/17 01:40:51;;;;;;;5.63;2.70;;;;;;;3.36;94.56;93074.91;4991857;28;20121;-93
2021/04/17 01:43:21;;;;;;;4.22;2.97;;;;;;;3.21;94.66;93078.94;4992428;28;20096;-93
2021/04/17 01:45:49;;;;;;;5.70;2.47;;;;;;;3.26;93.65;93110.66;4993552;28;20058;-92
2021/04/17 01:48:16;;;;;;;4.78;2.75;;;;;;;3.25;95.94;93129.41;4994017;28;20804;-93
2021/04/17 01:50:43;;;;;;;5.22;2.88;;;;;;;3.28;94.42;93096.06;4991470;28;20499;-96
2021/04/17 01:53:15;;;;;;;4.07;2.42;;;;;;;3.31;93.22;93076.22;4992660;28;20065;-94
2021/04/17 01:55:42;;;;;;;5.53;2.88;;;;;;;3.62;95.37;93125.38;4994941;28;20491;-94
2021/04/17 01:58:10;;;;;;;5.18;3.30;;;;;;;3.53;93.72;93108.63;4996290;28;20117;-95
2021/04/17 02:00:37;;;;;;;7.10;4.18;;;;;;;3.29;93.45;93083.19;4995657;28;20050;-95
2021/04/17 02:03:04;;;;;;;5.43;2.85;;;;;;;3.70;92.20;93122.78;4996571;28;20065;-95
2021/04/17 02:05:31;;;;;;;4.88;3.15;;;;;;;3.43;91.82;93066.44;4997826;28;20046;-95
2021/04/17 02:08:02;;;;;;;7.95;2.70;;;;;;;3.41;91.15;93077.72;4999354;28;20145;-95
2021/04/17 02:10:33;;;;;;;7.72;3.47;;;;;;;3.82;91.18;93135.09;4999381;28;20054;-94
2021/04/17 02:13:04;;;;;;;4.53;2.90;;;;;;;3.81;92.70;93141.13;4996980;28;20141;-94
2021/04/17 02:15:39;;;;;;;5.28;3.65;;;;;;;3.54;93.26;93100.84;4994370;28;20050;-95
2021/04/17 02:21:46;;;;;;;;;;;;;;;;;;;;;
2021/04/17 02:49:36;;;;;;;;;;;;;;;;;;;;;
2021/04/17 02:52:10;;;;;;;5.43;4.28;;;;;;;3.37;100.00;93112.81;4920712;29;20062;-93
2021/04/17 03:41:58;;;;;;;;;;;;;;;;;;;;;
2021/04/17 04:37:50;;;;;;;9.38;5.47;;;;;;;1.92;100.00;92980.25;4802567;29;20055;-95
2021/04/17 04:41:05;;;;;;;;;;;;;;;;;;;;;
2021/04/17 04:52:25;;;;;;;9.73;4.35;;;;;;;3.30;100.00;93086.53;4912323;29;21003;-94
2021/04/17 04:58:34;;;;;;;10.35;5.68;;;;;;;3.36;100.00;93069.81;4911470;29;20473;-95
2021/04/17 05:01:08;;;;;;;9.23;5.88;;;;;;;2.88;100.00;92994.63;4915891;29;20083;-95
2021/04/17 05:04:08;;;;;;;8.25;5.13;;;;;;;2.78;100.00;92979.63;4987280;28;20079;-94
2021/04/17 05:07:20;;;;;;;7.40;5.40;;;;;;;2.91;100.00;92979.03;4976994;28;20061;-94
2021/04/17 05:13:41;;;;;;;;;;;;;;;;;;;;;
2021/04/17 05:16:39;;;;;;;;;;;;;;;;;;;;;
2021/04/17 05:19:13;;;;;;;12.25;7.72;;;;;;;3.14;100.00;93017.13;5016463;28;20106;-96
2021/04/17 05:21:41;;;;;;;11.18;5.75;;;;;;;3.02;100.00;92993.88;5016113;28;20383;-96
2021/04/17 05:24:12;;;;;;;8.57;5.03;;;;;;;3.77;100.00;93101.78;5022055;28;20118;-96
2021/04/17 05:26:38;;;;;;;12.77;6.70;;;;;;;3.18;100.00;93008.22;5020722;28;20061;-95
2021/04/17 05:29:07;;;;;;;12.52;7.63;;;;;;;3.12;100.00;92982.72;5023414;28;20042;-96
2021/04/17 05:31:38;;;;;;;11.50;6.35;;;;;;;3.81;100.00;93064.91;5019894;28;20050;-94
2021/04/17 05:34:07;;;;;;;11.23;4.95;;;;;;;3.65;100.00;93028.50;5014145;28;20053;-95
2021/04/17 05:36:35;;;;;;;7.88;4.40;;;;;;;3.37;100.00;93005.41;5013864;28;20050;-95
2021/04/17 05:39:01;;;;;;;6.28;3.95;;;;;;;3.64;100.00;93042.19;5014185;28;20050;-96
2021/04/17 05:41:29;;;;;;;10.93;4.65;;;;;;;4.07;100.00;93089.16;5014057;28;20439;-95
2021/04/17 05:43:56;;;;;;;12.63;5.38;;;;;;;4.11;100.00;93100.53;5019905;28;20104;-95
2021/04/17 05:46:22;;;;;;;12.27;6.35;;;;;;;3.44;100.00;92980.91;5034723;28;20046;-95
2021/04/17 05:48:50;;;;;;;7.28;4.65;;;;;;;3.96;100.00;93047.94;5033999;28;20051;-96
2021/04/17 05:51:17;;;;;;;11.48;5.90;;;;;;;4.05;100.00;93055.50;5035859;28;20052;-95
2021/04/17 05:53:48;;;;;;;10.43;6.30;;;;;;;4.17;100.00;93071.13;5041135;28;20063;-96
2021/04/17 05:56:18;;;;;;;18.20;8.77;;;;;;;4.31;100.00;93093.25;5025650;28;20055;-96
2021/04/17 05:58:45;;;;;;;21.10;10.65;;;;;;;3.58;100.00;92989.53;4999437;28;20075;-96
2021/04/17 06:01:14;;;;;;;13.65;6.82;;;;;;;3.78;100.00;93030.47;4998233;28;20086;-96
2021/04/17 06:03:41;;;;;;;14.85;7.30;;;;;;;3.72;100.00;93003.22;4999810;28;20581;-96
2021/04/17 06:06:31;;;;;;;11.85;7.35;;;;;;;4.11;100.00;93055.59;5008808;28;20094;-95
2021/04/17 06:09:00;;;;;;;10.52;6.20;;;;;;;3.47;100.00;92978.81;4990003;28;20050;-96
2021/04/17 06:11:26;;;;;;;14.27;9.25;;;;;;;3.59;100.00;92986.03;5004657;28;20051;-96
2021/04/17 06:13:54;;;;;;;31.83;10.95;;;;;;;3.54;100.00;92981.47;5023180;28;20046;-96
2021/04/17 06:16:20;;;;;;;18.83;8.82;;;;;;;3.70;100.00;92998.31;5021396;28;20130;-96
2021/04/17 06:18:58;;;;;;;20.95;8.98;;;;;;;4.10;100.00;93048.13;5030544;28;20050;-96
2021/04/17 06:21:27;;;;;;;20.88;9.50;;;;;;;3.57;100.00;92962.56;5030995;28;20050;-96
2021/04/17 06:24:01;;;;;;;14.38;6.88;;;;;;;4.37;100.00;93067.09;5007838;28;20049;-96
2021/04/17 06:26:53;;;;;;;11.65;7.20;;;;;;;3.60;100.00;92950.28;5031669;28;20050;-96
2021/04/17 06:29:30;;;;;;;19.02;8.20;;;;;;;3.57;100.00;92942.25;5005231;28;20066;-95
2021/04/17 06:32:03;;;;;;;11.20;6.32;;;;;;;3.51;100.00;92958.94;5029704;28;20586;-96
2021/04/17 06:34:30;;;;;;;15.20;7.43;;;;;;;4.10;100.00;93048.13;5030901;28;20064;-95
2021/04/17 06:37:01;;;;;;;15.40;6.65;;;;;;;3.52;100.00;92962.28;5045928;28;20045;-96
2021/04/17 06:39:34;;;;;;;15.68;7.80;;;;;;;4.21;100.00;93062.97;5052305;28;20048;-96
2021/04/17 06:42:09;;;;;;;14.52;7.97;;;;;;;4.16;100.00;93037.25;5047103;28;20196;-96
2021/04/17 06:44:46;;;;;;;20.33;12.75;;;;;;;3.29;100.00;92932.63;5052304;28;20056;-96
2021/04/17 06:47:14;;;;;;;19.83;11.48;;;;;;;3.83;100.00;92987.56;5046452;28;20421;-95
2021/04/17 06:49:46;;;;;;;11.20;7.32;;;;;;;4.16;100.00;93051.75;5047144;28;20056;-96
2021/04/17 06:52:14;;;;;;;13.35;7.60;;;;;;;3.82;100.00;92973.28;5039654;28;20132;-95
2021/04/17 06:54:41;;;;;;;13.52;7.30;;;;;;;4.21;100.00;93022.28;5039443;28;20056;-96
2021/04/17 06:57:08;;;;;;;19.55;9.20;;;;;;;3.86;100.00;92986.41;5044105;28;20049;-96
2021/04/17 06:59:34;;;;;;;18.13;8.65;;;;;;;4.00;100.00;93022.97;5049750;28;20399;-95
2021/04/17 07:02:03;;;;;;;12.55;7.80;;;;;;;3.86;100.00;92996.59;5041822;28;20085;-96
2021/04/17 07:04:29;;;;;;;13.27;7.75;;;;;;;4.13;100.00;93023.16;5035768;28;20049;-95
2021/04/17 07:06:56;;;;;;;18.83;8.80;;;;;;;4.50;100.00;93053.75;5035892;28;20050;-95
2021/04/17 07:09:22;;;;;;;;;;;;;;;4.65;100.00;93058.06;5037651;28;20141;-95
2021/04/17 07:11:49;;;;;;;13.70;7.85;;;;;;;4.25;100.00;92993.00;5031496;28;19968;-95
2021/04/17 07:14:17;;;;;;;13.25;6.18;;;;;;;4.53;100.00;92997.47;5027165;28;20125;-96
2021/04/17 07:17:02;;;;;;;11.98;7.70;;;;;;;4.80;100.00;93043.56;5022294;28;20049;-96
2021/04/17 07:19:55;;;;;;;12.60;6.20;;;;;;;4.82;100.00;93035.75;5021491;28;20053;-95
2021/04/17 07:22:25;;;;;;;20.98;8.38;;;;;;;4.31;100.00;92972.94;5014815;28;20064;-96
2021/04/17 07:24:52;;;;;;;14.85;7.70;;;;;;;4.78;100.00;93037.09;5017061;28;20053;-95
2021/04/17 07:27:36;;;;;;;18.60;7.93;;;;;;;4.98;100.00;93061.97;5017694;28;20089;-95
2021/04/17 07:30:07;;;;;;;16.20;7.93;;;;;;;4.95;100.00;93037.66;5015312;28;20060;-95
2021/04/17 07:32:34;;;;;;;16.08;7.82;;;;;;;5.10;100.00;93040.19;5016162;28;20054;-95
2021/04/17 07:35:11;;;;;;;19.20;8.65;;;;;;;5.05;100.00;93022.13;5018113;28;20042;-96
2021/04/17 07:37:39;;;;;;;16.08;8.50;;;;;;;5.21;100.00;93044.00;5038110;28;20061;-95
2021/04/17 07:40:18;;;;;;;18.80;8.90;;;;;;;5.37;100.00;93058.25;5044200;28;20057;-95
2021/04/17 07:42:58;;;;;;;17.67;9.65;;;;;;;5.35;100.00;93055.91;5037017;28;20068;-94
2021/04/17 07:45:28;;;;;;;23.35;10.20;;;;;;;4.85;100.00;92994.69;5039137;28;20045;-95
2021/04/17 07:47:58;;;;;;;28.25;15.07;;;;;;;4.70;100.00;92955.75;5034155;28;20107;-93
2021/04/17 07:50:34;;;;;;;22.80;12.00;;;;;;;5.39;100.00;93058.88;5013477;28;20761;-94
2021/04/17 07:53:01;;;;;;;17.35;9.55;;;;;;;5.05;100.00;92979.59;5017079;28;20498;-94
2021/04/17 07:55:32;;;;;;;25.92;11.73;;;;;;;5.59;100.00;93043.78;5015070;28;20080;-95
2021/04/17 07:58:05;;;;;;;19.33;9.98;;;;;;;5.58;100.00;93026.13;5017908;28;20052;-94
2021/04/17 08:00:31;;;;;;;21.90;10.43;;;;;;;5.81;100.00;93036.13;5013807;28;20092;-93
2021/04/17 08:02:58;;;;;;;15.35;9.10;;;;;;;5.70;100.00;93029.75;5012400;28;20132;-94
2021/04/17 08:05:26;;;;;;;;;;;;;;;5.71;100.00;93028.00;5012752;28;20049;-94
2021/04/17 08:07:54;;;;;;;14.25;7.78;;;;;;;5.40;100.00;93026.53;5012474;28;19922;-95
2021/04/17 08:10:21;;;;;;;18.50;8.63;;;;;;;5.69;100.00;93020.53;5012431;28;20128;-94
2021/04/17 08:12:51;;;;;;;16.13;8.73;;;;;;;5.69;100.00;93022.31;5012265;28;20046;-94
2021/04/17 08:15:19;;;;;;;16.65;8.27;;;;;;;5.05;100.00;92958.47;5012702;28;20042;-94
2021/04/17 08:17:49;;;;;;;11.27;5.65;;;;;;;5.40;100.00;92998.50;5014662;28;20054;-95
2021/04/17 08:20:17;;;;;;;15.27;7.43;;;;;;;5.03;100.00;92929.84;5012081;28;20089;-94
2021/04/17 08:22:48;;;;;;;34.08;14.90;;;;;;;5.44;100.00;93005.63;5008543;28;20054;-96
2021/04/17 08:25:20;;;;;;;37.58;14.57;;;;;;;5.51;100.00;93003.13;5012210;28;20498;-92
2021/04/17 08:27:47;;;;;;;14.07;7.25;;;;;;;5.58;100.00;93005.72;5006714;28;20080;-93
2021/04/17 08:30:20;;;;;;;16.52;7.75;;;;;;;5.65;100.00;92988.72;5011610;28;20057;-93
2021/04/17 08:32:47;;;;;;;20.65;8.02;;;;;;;5.68;100.00;93013.84;5014598;28;20050;-94
2021/04/17 08:35:15;;;;;;;17.95;8.75;;;;;;;5.59;100.00;93003.00;5014665;28;20046;-94
2021/04/17 08:38:07;;;;;;;11.75;6.93;;;;;;;5.38;100.00;93006.38;5032525;28;20049;-93
2021/04/17 08:40:53;;;;;;;27.52;10.27;;;;;;;5.57;100.00;93002.41;5024303;28;20087;-93
2021/04/17 08:43:36;;;;;;;17.98;8.15;;;;;;;5.26;100.00;92929.66;5016254;28;20145;-94
2021/04/17 08:46:10;;;;;;;16.95;7.97;;;;;;;5.81;100.00;93000.44;5030372;28;20049;-95
2021/04/17 08:48:46;;;;;;;15.27;7.82;;;;;;;5.99;100.00;92984.66;5037815;28;20041;-96
2021/04/17 08:51:31;;;;;;;12.85;8.00;;;;;;;5.51;100.00;92919.03;5036423;28;20049;-95
2021/04/17 08:54:17;;;;;;;15.88;7.35;;;;;;;6.19;100.00;92989.13;5035897;28;20080;-94
2021/04/17 08:56:53;;;;;;;12.75;6.95;;;;;;;6.36;100.00;92989.59;5035881;28;20045;-94
2021/04/17 08:59:22;;;;;;;16.75;6.50;;;;;;;6.33;100.00;92979.78;5034508;28;20421;-94
2021/04/17 09:01:50;;;;;;;66.55;24.58;;;;;;;6.59;100.00;92988.53;5036187;28;20439;-95
2021/04/17 09:04:16;;;;;;;30.25;12.98;;;;;;;6.67;100.00;92983.25;5036778;28;20107;-94
2021/04/17 09:06:44;;;;;;;;;;;;;;;6.78;100.00;92981.94;5037301;28;20056;-95
2021/04/17 09:09:31;;;;;;;71.30;20.98;;;;;;;6.89;100.00;92967.81;5034463;28;20368;-94
2021/04/17 09:12:20;;;;;;;25.67;12.18;;;;;;;6.94;100.00;92970.56;5033686;28;20084;-94
2021/04/17 09:14:57;;;;;;;20.38;10.02;;;;;;;6.97;100.00;92961.75;5032267;28;20448;-94
2021/04/17 09:17:48;;;;;;;21.67;10.95;;;;;;;7.09;100.00;92967.84;5012236;28;20118;-94
2021/04/17 09:20:33;;;;;;;93.57;29.75;;;;;;;6.57;100.00;92890.94;4999206;28;20061;-93
2021/04/17 09:22:59;;;;;;;108.90;32.63;;;;;;;6.40;100.00;92880.31;5032777;28;20413;-94
2021/04/17 09:25:43;;;;;;;52.42;18.30;;;;;;;7.05;100.00;92968.44;5032692;28;20053;-94
2021/04/17 09:28:11;;;;;;;314.33;86.65;;;;;;;7.06;100.00;92963.16;5033487;28;20050;-93
2021/04/17 09:30:38;;;;;;;435.90;126.20;;;;;;;6.82;100.00;92915.94;5033090;28;20478;-94
2021/04/17 09:33:05;;;;;;;244.32;71.88;;;;;;;6.79;100.00;92918.88;5016353;28;20046;-94
2021/04/17 09:35:34;;;;;;;162.20;48.85;;;;;;;7.09;100.00;92959.41;5013385;28;20046;-92
2021/04/17 09:38:07;;;;;;;174.43;56.63;;;;;;;7.15;100.00;92948.41;5013234;28;20050;-94
2021/04/17 09:40:36;;;;;;;77.38;27.65;;;;;;;6.78;100.00;92879.00;5013132;28;20058;-93
2021/04/17 09:43:06;;;;;;;33.60;16.25;;;;;;;7.30;100.00;92943.13;5013303;28;20050;-94
2021/04/17 09:45:35;;;;;;;94.65;33.50;;;;;;;7.30;100.00;92937.22;5014910;28;20050;-94
2021/04/17 09:48:03;;;;;;;24.02;12.88;;;;;;;7.32;100.00;92922.50;5013736;28;20042;-92
2021/04/17 09:50:31;;;;;;;22.13;10.75;;;;;;;7.33;100.00;92931.72;5013815;28;20046;-92
2021/04/17 09:53:12;;;;;;;106.32;35.88;;;;;;;7.32;99.69;92925.81;5013769;28;20053;-93
2021/04/17 09:55:50;;;;;;;28.13;12.88;;;;;;;7.14;99.74;92910.28;5013901;28;20536;-92
2021/04/17 09:58:32;;;;;;;18.77;7.93;;;;;;;7.24;100.00;92927.78;5014330;28;20072;-92
2021/04/17 10:01:08;;;;;;;25.73;10.35;;;;;;;7.13;100.00;92922.25;5014038;28;20058;-92
2021/04/17 10:03:36;;;;;;;28.58;12.38;;;;;;;7.13;100.00;92931.72;5013895;28;20076;-93
2021/04/17 10:06:03;;;;;;;60.67;24.85;;;;;;;7.11;100.00;92933.66;5013979;28;20145;-92
2021/04/17 10:08:32;;;;;;;42.80;19.95;;;;;;;7.16;100.00;92933.84;5013995;28;20050;-92
2021/04/17 10:10:59;;;;;;;93.80;45.15;;;;;;;6.90;100.00;92905.53;5013744;28;20045;-93
2021/04/17 10:13:43;;;;;;;48.88;23.65;;;;;;;7.07;100.00;92938.38;5014066;28;20052;-93
2021/04/17 10:16:11;;;;;;;70.05;32.00;;;;;;;7.05;100.00;92932.69;5011071;28;20057;-93
2021/04/17 10:18:40;;;;;;;40.83;18.52;;;;;;;7.07;100.00;92938.38;5008594;28;20060;-93
2021/04/17 10:21:08;;;;;;;20.77;11.15;;;;;;;6.90;100.00;92915.75;5012951;28;20485;-93
2021/04/17 10:23:35;;;;;;;18.90;8.93;;;;;;;7.02;100.00;92915.97;5013169;28;20089;-93
2021/04/17 10:26:07;;;;;;;15.75;8.77;;;;;;;7.09;100.00;92937.19;5014595;28;20096;-92
2021/04/17 10:28:34;;;;;;;22.83;12.82;;;;;;;7.13;100.00;92932.47;5013628;28;20046;-94
2021/04/17 10:31:07;;;;;;;17.70;8.35;;;;;;;7.16;100.00;92927.00;5014072;28;21541;-94
2021/04/17 10:33:34;;;;;;;17.15;8.85;;;;;;;7.17;100.00;92933.66;5013725;28;20076;-93
2021/04/17 10:36:02;;;;;;;19.70;8.90;;;;;;;7.15;100.00;92911.84;5013188;28;20050;-94
2021/04/17 10:38:31;;;;;;;14.65;7.45;;;;;;;7.40;99.91;92935.06;5013509;28;20124;-94
2021/04/17 10:43:38;;;;;;;13.23;6.80;;;;;;;7.34;100.00;92928.19;5120096;27;847668;-79
2021/04/17 10:46:06;;;;;;;12.43;8.15;;;;;;;7.10;100.00;92892.03;5127611;28;20064;-80
2021/04/17 10:48:41;;;;;;;15.45;7.95;;;;;;;7.40;100.00;92929.19;5126887;28;20044;-81
2021/04/17 10:51:10;;;;;;;16.73;7.18;;;;;;;7.41;100.00;92916.19;5127495;28;20044;-81
2021/04/17 10:53:38;;;;;;;14.80;7.75;;;;;;;7.35;99.64;92914.41;5127538;28;20065;-81
2021/04/17 10:56:13;;;;;;;15.45;9.90;;;;;;;6.96;100.00;92911.66;5127209;28;20047;-81
2021/04/17 10:58:41;;;;;;;11.70;7.10;;;;;;;7.04;100.00;92900.47;5126850;28;20089;-81
2021/04/17 11:01:09;;;;;;;15.13;7.65;;;;;;;7.07;100.00;92905.97;5127379;28;20120;-81
2021/04/17 11:03:46;;;;;;;14.07;6.78;;;;;;;6.82;100.00;92905.75;5127364;28;20096;-81
2021/04/17 11:06:14;;;;;;;9.77;5.45;;;;;;;7.11;100.00;92898.69;5127203;28;20520;-81
2021/04/17 11:08:41;;;;;;;16.55;6.97;;;;;;;7.15;100.00;92899.88;5127423;28;20524;-81
2021/04/17 11:11:09;;;;;;;9.20;5.25;;;;;;;7.30;100.00;92898.88;5127248;28;20039;-81
2021/04/17 11:13:37;;;;;;;11.63;6.43;;;;;;;6.95;100.00;92884.56;5127291;28;20130;-81
2021/04/17 11:16:05;;;;;;;13.55;5.55;;;;;;;6.64;100.00;92871.34;5126751;28;20050;-81
2021/04/17 11:18:34;;;;;;;18.13;7.05;;;;;;;6.97;100.00;92879.22;5125768;28;20054;-80
2021/04/17 11:21:13;;;;;;;15.63;7.15;;;;;;;7.21;100.00;92886.31;5126692;28;20047;-80
2021/04/17 11:23:48;;;;;;;29.35;10.43;;;;;;;7.19;100.00;92880.59;5127062;28;20072;-81
2021/04/17 11:26:19;;;;;;;17.08;8.70;;;;;;;7.45;100.00;92881.59;5126747;28;20147;-81
2021/04/17 11:28:47;;;;;;;16.55;8.05;;;;;;;7.31;100.00;92868.03;5126533;28;20043;-80
2021/04/17 11:31:18;;;;;;;13.43;6.90;;;;;;;7.62;100.00;92881.19;5126627;28;20448;-81
2021/04/17 11:33:46;;;;;;;12.05;6.68;;;;;;;7.56;100.00;92874.31;5124367;28;20047;-80
2021/04/17 11:36:12;;;;;;;16.90;7.22;;;;;;;7.43;100.00;92883.56;5123829;28;20058;-80
2021/04/17 11:38:43;;;;;;;11.50;6.25;;;;;;;7.05;100.00;92872.16;5124977;28;20039;-80
2021/04/17 11:41:12;;;;;;;12.30;7.15;;;;;;;7.01;100.00;92862.53;5114627;28;20076;-81
2021/04/17 11:43:41;;;;;;;15.50;7.18;;;;;;;7.14;100.00;92865.13;5105954;28;20052;-81
2021/04/17 11:46:10;;;;;;;52.83;18.73;;;;;;;6.95;100.00;92836.03;5105760;28;20407;-80
2021/04/17 11:48:50;;;;;;;22.48;8.95;;;;;;;6.74;100.00;92830.13;5105852;28;20682;-81
2021/04/17 11:51:18;;;;;;;14.27;7.47;;;;;;;6.95;100.00;92856.47;5103993;28;20413;-81
2021/04/17 11:53:46;;;;;;;59.88;23.02;;;;;;;7.03;100.00;92847.81;5098958;28;20067;-80
2021/04/17 11:56:18;;;;;;;16.58;8.32;;;;;;;7.20;100.00;92843.09;5091830;28;20490;-80
2021/04/17 11:58:44;;;;;;;13.63;7.22;;;;;;;7.14;100.00;92839.56;5091660;28;20043;-80
2021/04/17 12:01:11;;;;;;;;;;;;;;;7.27;100.00;92843.84;5091988;28;20052;-80
2021/04/17 12:03:40;;;;;;;11.63;5.93;;;;;;;7.34;100.00;92831.88;5091640;28;20432;-81
2021/04/17 12:06:07;;;;;;;13.98;7.53;;;;;;;7.18;100.00;92827.94;5092013;28;20063;-80
2021/04/17 12:08:34;;;;;;;11.85;6.60;;;;;;;6.13;100.00;92709.34;5091491;28;20537;-80
2021/04/17 12:11:02;;;;;;;13.27;7.85;;;;;;;6.86;100.00;92825.22;5091976;28;20051;-80
2021/04/17 12:13:43;;;;;;;14.30;8.40;;;;;;;6.93;100.00;92823.47;5091388;28;20048;-79
2021/04/17 12:16:09;;;;;;;11.18;6.65;;;;;;;6.97;100.00;92838.38;5092613;28;20040;-80
2021/04/17 12:18:38;;;;;;;;;;;;;;;7.07;100.00;92831.91;5092193;28;20044;-80
2021/04/17 12:21:06;;;;;;;11.85;5.32;;;;;;;7.14;100.00;92826.00;5091330;28;19919;-80
2021/04/17 12:23:32;;;;;;;11.55;7.55;;;;;;;6.97;100.00;92812.84;5091351;28;20052;-80
2021/04/17 12:25:58;;;;;;;;;;;;;;;7.21;100.00;92831.88;5091479;28;20530;-79
2021/04/17 12:28:25;;;;;;;12.48;6.93;;;;;;;6.92;100.00;92824.44;5091273;28;19970;-79
2021/04/17 12:30:55;;;;;;;12.80;5.53;;;;;;;6.61;100.00;92830.13;5091288;28;20051;-79
2021/04/17 12:33:22;;;;;;;14.52;7.90;;;;;;;6.87;100.00;92828.56;5091149;28;20048;-79
2021/04/17 12:35:48;;;;;;;12.18;7.50;;;;;;;6.92;100.00;92833.84;5090766;28;20048;-79
2021/04/17 12:38:19;;;;;;;14.93;6.75;;;;;;;6.94;100.00;92830.13;5091135;28;20193;-79
2021/04/17 12:40:54;;;;;;;10.77;6.15;;;;;;;7.03;100.00;92819.72;5091265;28;20058;-79
2021/04/17 12:43:20;;;;;;;11.68;5.93;;;;;;;7.02;100.00;92823.25;5091302;28;20066;-79
2021/04/17 12:45:47;;;;;;;11.65;6.55;;;;;;;7.02;100.00;92813.81;5091828;28;20051;-79
2021/04/17 12:48:15;;;;;;;12.02;5.20;;;;;;;7.01;100.00;92819.91;5090969;28;20044;-80
2021/04/17 12:50:41;;;;;;;14.60;8.95;;;;;;;7.06;100.00;92819.31;5091074;28;20509;-78
2021/04/17 12:53:07;;;;;;;;;;;;;;;7.12;100.00;92820.31;5091796;28;20388;-77
2021/04/17 12:55:34;;;;;;;18.15;8.90;;;;;;;7.03;100.00;92814.63;5090836;28;19927;-77
2021/04/17 12:58:01;;;;;;;11.95;7.22;;;;;;;7.10;100.00;92815.41;5091460;28;20047;-78
2021/04/17 13:00:27;;;;;;;16.42;8.45;;;;;;;7.04;100.00;92808.53;5090813;28;20044;-78
2021/04/17 13:02:54;;;;;;;13.77;7.00;;;;;;;7.17;100.00;92811.06;5090477;28;20063;-77
2021/04/17 13:05:20;;;;;;;15.95;7.75;;;;;;;7.16;100.00;92809.50;5089876;28;20052;-78
2021/04/17 13:07:46;;;;;;;9.52;5.18;;;;;;;7.16;100.00;92814.59;5090986;28;20048;-78
2021/04/17 13:10:13;;;;;;;11.82;5.43;;;;;;;7.15;100.00;92813.03;5090484;28;20048;-78
2021/04/17 13:12:40;;;;;;;11.95;5.90;;;;;;;7.20;100.00;92810.69;5090695;28;20055;-78
2021/04/17 13:15:11;;;;;;;12.68;7.18;;;;;;;7.22;100.00;92803.59;5091073;28;20087;-78
2021/04/17 13:17:51;;;;;;;10.18;6.78;;;;;;;7.29;100.00;92800.25;5090617;28;20040;-77
2021/04/17 13:20:17;;;;;;;12.73;6.30;;;;;;;7.09;100.00;92778.84;5090619;28;20438;-78
2021/04/17 13:22:44;;;;;;;11.90;7.32;;;;;;;7.16;100.00;92801.84;5090638;28;20047;-78
2021/04/17 13:25:11;;;;;;;;;;;;;;;7.22;100.00;92798.47;5090737;28;20052;-77
2021/04/17 13:27:37;;;;;;;14.07;6.88;;;;;;;7.27;100.00;92802.22;5085828;28;20268;-77
2021/04/17 13:30:06;;;;;;;24.13;9.60;;;;;;;7.30;100.00;92801.81;5087679;28;20097;-77
2021/04/17 13:32:32;;;;;;;12.35;6.78;;;;;;;6.93;100.00;92751.97;5089205;28;20971;-77
2021/04/17 13:34:59;;;;;;;8.63;5.25;;;;;;;7.13;100.00;92781.78;5089578;28;20040;-77
2021/04/17 13:37:27;;;;;;;53.53;18.33;;;;;;;7.13;100.00;92783.56;5090365;28;20377;-77
2021/04/17 13:39:53;;;;;;;66.68;22.45;;;;;;;7.05;100.00;92785.31;5089880;28;20044;-77
2021/04/17 13:42:20;;;;;;;;;;;;;;;6.84;100.00;92776.13;5090492;28;20060;-77
2021/04/17 13:44:46;;;;;;;13.52;6.38;;;;;;;6.82;100.00;92781.41;5090236;28;19927;-78
2021/04/17 13:47:14;;;;;;;9.00;5.10;;;;;;;6.86;100.00;92775.94;5089967;28;20048;-78
2021/04/17 13:49:40;;;;;;;16.85;7.93;;;;;;;6.68;100.00;92785.72;5089785;28;20534;-77
2021/04/17 13:52:06;;;;;;;;;;;;;;;6.48;100.00;92783.16;5090723;28;20043;-78
2021/04/17 13:54:33;;;;;;;11.00;7.45;;;;;;;6.26;100.00;92778.22;5089964;28;19926;-78
2021/04/17 13:56:59;;;;;;;38.58;17.92;;;;;;;6.25;100.00;92763.13;5089454;28;20048;-78
2021/04/17 13:59:26;;;;;;;18.90;8.85;;;;;;;6.58;100.00;92774.34;5090065;28;20048;-77
2021/04/17 14:01:53;;;;;;;17.70;8.13;;;;;;;6.62;100.00;92773.00;5089829;28;20399;-78
2021/04/17 14:04:20;;;;;;;7.63;4.70;;;;;;;6.63;100.00;92772.00;5088912;28;20180;-77
2021/04/17 14:06:55;;;;;;;8.30;5.25;;;;;;;6.59;100.00;92758.06;5089828;28;20146;-77
2021/04/17 14:09:22;;;;;;;12.23;6.90;;;;;;;6.66;100.00;92772.38;5089623;28;20427;-77
2021/04/17 14:11:48;;;;;;;11.50;6.82;;;;;;;6.61;100.00;92772.19;5089580;28;20310;-78
2021/04/17 14:14:14;;;;;;;9.15;4.93;;;;;;;6.49;100.00;92781.41;5089495;28;20044;-77
2021/04/17 14:16:41;;;;;;;;;;;;;;;6.22;100.00;92778.81;5089525;28;20048;-77
2021/04/17 14:19:07;;;;;;;9.23;6.00;;;;;;;6.04;100.00;92769.16;5089389;28;19959;-80
2021/04/17 14:21:34;;;;;;;;;;;;;;;6.09;100.00;92770.16;5089253;28;20047;-79
2021/04/17 14:24:00;;;;;;;14.93;7.25;;;;;;;5.84;100.00;92773.19;5089605;28;20295;-79